createdAt,value
2019-02-22T00:02:31.958Z,9.63
2019-02-22T00:05:01.097Z,10.50
2019-02-22T00:07:30.456Z,9.07
2019-02-22T00:09:59.968Z,11.80
2019-02-22T00:12:29.541Z,12.67
2019-02-22T00:14:58.341Z,12.87
2019-02-22T00:17:27.410Z,11.03
2019-02-22T00:19:57.021Z,10.23
2019-02-22T00:22:25.917Z,10.17
2019-02-22T00:24:54.713Z,9.70
2019-02-22T00:27:24.422Z,9.33
2019-02-22T00:29:54.187Z,9.10
2019-02-22T00:32:22.978Z,10.07
2019-02-22T00:34:51.785Z,10.37
2019-02-22T00:37:21.197Z,10.43
2019-02-22T00:39:50.696Z,10.57
2019-02-22T00:42:19.484Z,9.40
2019-02-22T00:44:48.290Z,9.90
2019-02-22T00:47:17.378Z,9.87
2019-02-22T00:49:46.457Z,9.87
2019-02-22T00:52:16.068Z,8.80
2019-02-22T00:54:44.873Z,10.47
2019-02-22T00:57:14.769Z,10.77
2019-02-22T00:59:44.285Z,9.43
2019-02-22T01:02:13.397Z,10.03
2019-02-22T01:04:42.789Z,11.40
2019-02-22T01:07:12.085Z,10.23
2019-02-22T01:09:41.509Z,11.17
2019-02-22T01:12:10.321Z,10.80
2019-02-22T01:14:39.784Z,10.97
2019-02-22T01:17:09.191Z,10.77
2019-02-22T01:19:38.297Z,10.57
2019-02-22T01:22:07.429Z,10.63
2019-02-22T01:24:36.222Z,10.83
2019-02-22T01:27:05.397Z,10.63
2019-02-22T01:29:34.191Z,10.70
2019-02-22T01:32:03.825Z,10.47
2019-02-22T01:34:32.963Z,11.57
2019-02-22T01:37:01.762Z,10.53
2019-02-22T01:39:31.073Z,11.70
2019-02-22T01:42:00.153Z,10.83
2019-02-22T01:44:29.559Z,13.07
2019-02-22T01:46:58.354Z,11.70
2019-02-22T01:49:27.556Z,13.03
2019-02-22T01:51:57.073Z,12.93
2019-02-22T01:54:26.130Z,12.80
2019-02-22T01:56:55.081Z,11.23
2019-02-22T01:59:24.243Z,11.67
2019-02-22T02:01:53.642Z,12.53
2019-02-22T02:04:22.741Z,12.97
2019-02-22T02:06:52.238Z,12.90
2019-02-22T02:09:21.754Z,13.70
2019-02-22T02:11:50.653Z,12.67
2019-02-22T02:14:20.650Z,12.60
2019-02-22T02:16:49.774Z,12.13
2019-02-22T02:19:19.397Z,12.20
2019-02-22T02:21:48.477Z,13.10
2019-02-22T02:24:17.268Z,12.47
2019-02-22T02:26:46.469Z,13.10
2019-02-22T02:29:15.547Z,14.60
2019-02-22T02:31:45.194Z,12.80
2019-02-22T02:34:15.318Z,13.67
2019-02-22T02:36:44.386Z,13.37
2019-02-22T02:39:13.453Z,13.07
2019-02-22T02:41:42.335Z,12.27
2019-02-22T02:44:11.529Z,12.57
2019-02-22T02:46:40.653Z,12.97
2019-02-22T02:49:09.750Z,14.00
2019-02-22T02:51:38.597Z,13.80
2019-02-22T02:54:07.728Z,13.27
2019-02-22T02:56:36.535Z,13.43
2019-02-22T02:59:05.828Z,13.90
2019-02-22T03:01:34.875Z,13.57
2019-02-22T03:04:03.697Z,14.33
2019-02-22T03:06:47.595Z,13.40
2019-02-22T03:09:16.809Z,13.93
2019-02-22T03:11:45.938Z,14.33
2019-02-22T03:14:15.034Z,14.47
2019-02-22T03:16:44.147Z,13.57
2019-02-22T03:19:12.946Z,13.37
2019-02-22T03:21:42.058Z,14.87
2019-02-22T03:24:11.226Z,14.20
2019-02-22T03:26:40.305Z,13.23
2019-02-22T03:29:09.120Z,13.13
2019-02-22T03:31:38.551Z,13.37
2019-02-22T03:34:13.486Z,13.63
2019-02-22T03:36:43.056Z,13.63
2019-02-22T03:39:11.863Z,14.33
2019-02-22T03:41:41.231Z,13.00
2019-02-22T03:44:10.290Z,13.27
2019-02-22T03:46:39.731Z,13.27
2019-02-22T03:49:08.850Z,13.57
2019-02-22T03:51:38.548Z,12.40
2019-02-22T03:54:07.935Z,13.03
2019-02-22T03:56:37.174Z,12.77
2019-02-22T03:59:06.386Z,13.60
2019-02-22T04:01:35.938Z,12.33
2019-02-22T04:04:04.811Z,14.07
2019-02-22T04:06:34.001Z,13.33
2019-02-22T04:09:04.482Z,13.33
2019-02-22T04:11:44.985Z,13.03
2019-02-22T04:14:04.182Z,13.43
2019-02-22T04:16:33.610Z,14.50
2019-02-22T04:19:03.124Z,13.23
2019-02-22T04:21:32.303Z,15.23
2019-02-22T04:24:01.805Z,14.33
2019-02-22T04:26:31.200Z,13.63
2019-02-22T04:29:00.634Z,14.40
2019-02-22T04:31:29.725Z,13.77
2019-02-22T04:33:58.820Z,13.23
2019-02-22T04:36:27.614Z,14.83
2019-02-22T04:38:56.797Z,13.83
2019-02-22T04:41:25.985Z,14.70
2019-02-22T04:43:54.799Z,14.73
2019-02-22T04:46:23.603Z,13.40
2019-02-22T04:48:52.654Z,13.63
2019-02-22T04:51:21.441Z,14.27
2019-02-22T04:53:50.555Z,14.17
2019-02-22T04:56:19.710Z,14.50
2019-02-22T04:58:49.138Z,14.33
2019-02-22T05:01:18.053Z,15.90
2019-02-22T05:03:47.257Z,14.80
2019-02-22T05:06:16.045Z,14.60
2019-02-22T05:08:45.769Z,15.00
2019-02-22T05:11:15.542Z,15.53
2019-02-22T05:13:44.662Z,15.93
2019-02-22T05:16:13.793Z,14.70
2019-02-22T05:18:42.930Z,15.30
2019-02-22T05:21:12.594Z,15.87
2019-02-22T05:23:42.301Z,15.43
2019-02-22T05:26:11.660Z,15.87
2019-02-22T05:28:41.067Z,15.67
2019-02-22T05:31:10.169Z,15.80
2019-02-22T05:33:39.585Z,16.10
2019-02-22T05:36:08.523Z,16.03
2019-02-22T05:38:37.344Z,16.97
2019-02-22T05:41:06.204Z,16.77
2019-02-22T05:43:35.644Z,15.47
2019-02-22T05:46:04.441Z,16.90
2019-02-22T05:48:33.523Z,16.50
2019-02-22T05:51:02.337Z,16.17
2019-02-22T05:53:31.717Z,15.43
2019-02-22T05:56:00.816Z,16.77
2019-02-22T05:58:30.261Z,16.43
2019-02-22T06:00:59.411Z,16.70
2019-02-22T06:03:28.812Z,17.47
2019-02-22T06:05:57.917Z,17.50
2019-02-22T06:08:27.321Z,17.90
2019-02-22T06:10:56.451Z,17.40
2019-02-22T06:13:25.985Z,17.30
2019-02-22T06:15:55.027Z,17.37
2019-02-22T06:18:24.354Z,18.80
2019-02-22T06:20:53.463Z,17.70
2019-02-22T06:23:22.915Z,17.67
2019-02-22T06:25:52.023Z,16.80
2019-02-22T06:28:21.129Z,17.77
2019-02-22T06:30:49.921Z,17.63
2019-02-22T06:33:18.992Z,16.90
2019-02-22T06:35:47.792Z,17.93
2019-02-22T06:38:16.687Z,17.73
2019-02-22T06:40:48.163Z,18.57
2019-02-22T06:43:17.005Z,18.73
2019-02-22T06:45:46.517Z,18.83
2019-02-22T06:48:15.434Z,18.33
2019-02-22T06:50:44.717Z,18.57
2019-02-22T06:53:13.620Z,18.90
2019-02-22T06:55:42.429Z,18.53
2019-02-22T06:58:11.863Z,18.63
2019-02-22T07:00:41.890Z,18.90
2019-02-22T07:03:10.757Z,19.53
2019-02-22T07:05:39.563Z,18.70
2019-02-22T07:08:08.710Z,19.10
2019-02-22T07:11:15.574Z,19.57
2019-02-22T07:13:44.649Z,18.20
2019-02-22T07:16:14.019Z,19.57
2019-02-22T07:18:43.485Z,19.50
2019-02-22T07:21:12.869Z,20.63
2019-02-22T07:23:42.025Z,22.07
2019-02-22T07:26:11.379Z,20.57
2019-02-22T07:28:40.573Z,19.87
2019-02-22T07:31:09.382Z,20.03
2019-02-22T07:33:38.460Z,22.20
2019-02-22T07:36:07.337Z,21.37
2019-02-22T07:38:36.456Z,21.03
2019-02-22T07:41:05.322Z,22.43
2019-02-22T07:43:34.113Z,20.97
2019-02-22T07:46:03.246Z,22.73
2019-02-22T07:48:32.634Z,23.17
2019-02-22T07:51:02.768Z,23.83
2019-02-22T07:53:31.918Z,24.30
2019-02-22T07:56:01.041Z,24.37
2019-02-22T07:58:30.665Z,23.63
2019-02-22T08:00:59.671Z,23.60
2019-02-22T08:03:29.346Z,24.13
2019-02-22T08:05:58.474Z,22.50
2019-02-22T08:08:27.885Z,25.57
2019-02-22T08:10:56.941Z,25.13
2019-02-22T08:13:26.083Z,26.87
2019-02-22T08:15:55.561Z,28.20
2019-02-22T08:18:24.946Z,23.87
2019-02-22T08:20:54.057Z,25.07
2019-02-22T08:23:23.454Z,27.93
2019-02-22T08:25:53.280Z,23.60
2019-02-22T08:28:22.664Z,25.70
2019-02-22T08:30:52.110Z,24.57
2019-02-22T08:33:21.466Z,26.93
2019-02-22T08:35:51.097Z,26.60
2019-02-22T08:38:20.509Z,25.80
2019-02-22T08:40:49.555Z,25.27
2019-02-22T08:43:18.675Z,25.03
2019-02-22T08:45:47.469Z,27.47
2019-02-22T08:48:16.663Z,26.17
2019-02-22T08:50:46.372Z,25.83
2019-02-22T08:53:15.548Z,26.27
2019-02-22T08:55:44.979Z,25.43
2019-02-22T08:58:14.057Z,23.83
2019-02-22T09:00:43.281Z,26.10
2019-02-22T09:03:12.670Z,27.13
2019-02-22T09:05:42.064Z,25.37
2019-02-22T09:08:11.497Z,26.93
2019-02-22T09:10:40.882Z,25.30
2019-02-22T09:13:10.284Z,27.23
2019-02-22T09:15:39.379Z,25.90
2019-02-22T09:18:08.529Z,27.17
2019-02-22T09:20:37.679Z,26.07
2019-02-22T09:23:07.613Z,26.27
2019-02-22T09:25:36.645Z,26.27
2019-02-22T09:28:05.458Z,24.50
2019-02-22T09:30:34.245Z,24.10
2019-02-22T09:33:03.741Z,25.43
2019-02-22T09:35:34.887Z,24.73
2019-02-22T09:38:04.285Z,27.13
2019-02-22T09:40:33.425Z,25.57
2019-02-22T09:43:02.293Z,23.43
2019-02-22T09:45:31.398Z,24.73
2019-02-22T09:48:01.109Z,25.90
2019-02-22T09:50:30.803Z,25.50
2019-02-22T09:52:59.909Z,24.67
2019-02-22T09:55:28.706Z,29.63
2019-02-22T09:57:57.987Z,25.37
2019-02-22T10:00:27.093Z,21.87
2019-02-22T10:02:55.896Z,22.27
2019-02-22T10:05:25.540Z,23.23
2019-02-22T10:07:54.697Z,22.50
2019-02-22T10:10:23.494Z,22.20
2019-02-22T10:12:52.367Z,22.27
2019-02-22T10:15:21.189Z,23.00
2019-02-22T10:17:50.577Z,20.20
2019-02-22T10:20:19.684Z,20.07
2019-02-22T10:22:48.760Z,19.63
2019-02-22T10:25:17.931Z,18.83
2019-02-22T10:27:47.051Z,17.83
2019-02-22T10:30:15.847Z,18.23
2019-02-22T10:32:45.259Z,15.47
2019-02-22T10:35:14.578Z,15.30
2019-02-22T10:37:45.013Z,16.10
2019-02-22T10:40:14.080Z,16.00
2019-02-22T10:42:43.470Z,12.73
2019-02-22T10:45:12.577Z,14.13
2019-02-22T10:47:41.653Z,13.93
2019-02-22T10:50:10.625Z,15.73
2019-02-22T10:52:40.065Z,16.40
2019-02-22T10:55:09.503Z,18.00
2019-02-22T10:57:38.297Z,14.70
2019-02-22T11:00:09.694Z,15.17
2019-02-22T11:02:38.921Z,15.60
2019-02-22T11:05:08.009Z,14.10
2019-02-22T11:07:37.481Z,14.27
2019-02-22T11:10:08.417Z,13.83
2019-02-22T11:12:37.713Z,13.53
2019-02-22T11:15:07.904Z,13.57
2019-02-22T11:17:36.702Z,12.20
2019-02-22T11:20:06.567Z,13.33
2019-02-22T11:22:35.683Z,12.23
2019-02-22T11:25:06.069Z,11.47
2019-02-22T11:27:35.511Z,11.43
2019-02-22T11:30:04.745Z,11.53
2019-02-22T11:32:34.115Z,11.60
2019-02-22T11:35:03.193Z,10.57
2019-02-22T11:37:32.285Z,10.80
2019-02-22T11:40:01.477Z,10.33
2019-02-22T11:42:31.112Z,11.10
2019-02-22T11:44:59.901Z,11.53
2019-02-22T11:47:29.123Z,12.53
2019-02-22T11:49:58.210Z,12.13
2019-02-22T11:52:27.106Z,11.23
2019-02-22T11:54:56.373Z,12.40
2019-02-22T11:57:25.243Z,12.10
2019-02-22T11:59:54.850Z,12.23
2019-02-22T12:02:23.671Z,11.47
2019-02-22T12:04:53.264Z,12.60
2019-02-22T12:07:22.473Z,11.47
2019-02-22T12:09:51.774Z,11.23
2019-02-22T12:12:21.480Z,10.87
2019-02-22T12:14:52.050Z,12.30
2019-02-22T12:17:21.850Z,13.03
2019-02-22T12:19:50.897Z,13.00
2019-02-22T12:22:19.934Z,12.07
2019-02-22T12:24:49.637Z,12.63
2019-02-22T12:27:18.437Z,12.07
2019-02-22T12:29:48.160Z,10.97
2019-02-22T12:32:17.326Z,11.63
2019-02-22T12:34:46.434Z,12.07
2019-02-22T12:37:15.813Z,11.20
2019-02-22T12:39:44.733Z,11.30
2019-02-22T12:42:13.782Z,11.57
2019-02-22T12:44:42.913Z,11.30
2019-02-22T12:47:11.767Z,10.87
2019-02-22T12:49:41.117Z,10.00
2019-02-22T12:52:10.643Z,11.67
2019-02-22T12:54:39.445Z,11.50
2019-02-22T12:57:08.319Z,12.03
2019-02-22T12:59:37.814Z,12.20
2019-02-22T13:02:07.330Z,11.60
2019-02-22T13:04:36.504Z,10.70
2019-02-22T13:07:05.782Z,11.20
2019-02-22T13:09:36.979Z,11.17
2019-02-22T13:12:13.587Z,10.43
2019-02-22T13:14:36.043Z,11.37
2019-02-22T13:17:05.260Z,11.17
2019-02-22T13:19:34.657Z,11.23
2019-02-22T13:22:04.162Z,12.93
2019-02-22T13:24:32.954Z,11.03
2019-02-22T13:27:01.762Z,12.23
2019-02-22T13:29:30.970Z,12.23
2019-02-22T13:32:00.125Z,12.20
2019-02-22T13:34:29.505Z,12.73
2019-02-22T13:36:58.650Z,13.30
2019-02-22T13:39:59.059Z,13.63
2019-02-22T13:42:28.202Z,13.63
2019-02-22T13:44:57.842Z,12.87
2019-02-22T13:47:27.186Z,13.30
2019-02-22T13:49:55.985Z,12.70
2019-02-22T13:52:25.051Z,12.43
2019-02-22T13:54:53.917Z,13.13
2019-02-22T13:57:23.353Z,12.87
2019-02-22T13:59:52.525Z,12.70
2019-02-22T14:02:21.330Z,12.97
2019-02-22T14:04:51.086Z,12.47
2019-02-22T14:07:20.693Z,13.70
2019-02-22T14:09:49.483Z,13.27
2019-02-22T14:12:18.309Z,12.87
2019-02-22T14:14:47.725Z,14.43
2019-02-22T14:17:16.869Z,12.33
2019-02-22T14:19:45.909Z,13.53
2019-02-22T14:22:15.250Z,11.60
2019-02-22T14:24:44.533Z,11.40
2019-02-22T14:27:13.410Z,9.53
2019-02-22T14:29:42.612Z,9.67
2019-02-22T14:32:11.817Z,10.70
2019-02-22T14:34:41.881Z,9.67
2019-02-22T14:37:10.710Z,10.10
2019-02-22T14:39:39.546Z,11.30
2019-02-22T14:42:08.973Z,11.90
2019-02-22T14:44:38.117Z,11.80
2019-02-22T14:47:07.091Z,11.13
2019-02-22T14:49:36.181Z,12.10
2019-02-22T14:52:05.414Z,11.93
2019-02-22T14:54:34.213Z,11.90
2019-02-22T14:57:03.018Z,10.93
2019-02-22T14:59:32.377Z,11.17
2019-02-22T15:02:01.260Z,11.00
2019-02-22T15:04:30.489Z,11.57
2019-02-22T15:07:00.108Z,10.60
2019-02-22T15:09:28.911Z,10.43
2019-02-22T15:11:58.139Z,9.83
2019-02-22T15:14:27.463Z,9.53
2019-02-22T15:17:01.754Z,8.60
2019-02-22T15:19:31.194Z,9.27
2019-02-22T15:22:01.222Z,8.37
2019-02-22T15:24:32.953Z,9.53
2019-02-22T15:27:01.442Z,8.27
2019-02-22T15:29:30.268Z,8.40
2019-02-22T15:31:59.649Z,8.63
2019-02-22T15:34:28.449Z,9.73
2019-02-22T15:36:57.511Z,9.53
2019-02-22T15:39:26.721Z,9.03
2019-02-22T15:41:56.123Z,9.07
2019-02-22T15:44:24.934Z,9.47
2019-02-22T15:46:53.993Z,8.70
2019-02-22T15:49:22.872Z,9.27
2019-02-22T15:51:52.249Z,8.83
2019-02-22T15:54:21.649Z,9.57
2019-02-22T15:56:51.313Z,9.03
2019-02-22T15:59:21.245Z,9.80
2019-02-22T16:01:55.572Z,9.90
2019-02-22T16:04:28.740Z,10.37
2019-02-22T16:06:57.858Z,9.37
2019-02-22T16:09:29.281Z,9.97
2019-02-22T16:11:58.929Z,11.00
2019-02-22T16:14:27.726Z,10.90
2019-02-22T16:16:56.517Z,11.97
2019-02-22T16:19:25.359Z,13.10
2019-02-22T16:21:54.896Z,12.07
2019-02-22T16:24:23.968Z,11.47
2019-02-22T16:27:02.083Z,12.57
2019-02-22T16:29:35.158Z,11.67
2019-02-22T16:32:05.602Z,11.30
2019-02-22T16:34:43.127Z,10.30
2019-02-22T16:37:05.513Z,8.70
2019-02-22T16:39:34.869Z,8.57
2019-02-22T16:42:03.911Z,7.83
2019-02-22T16:44:33.013Z,8.83
2019-02-22T16:47:02.118Z,9.13
2019-02-22T16:49:30.977Z,9.30
2019-02-22T16:52:00.713Z,9.63
2019-02-22T16:54:29.577Z,9.23
2019-02-22T16:56:59.273Z,9.43
2019-02-22T16:59:28.402Z,10.03
2019-02-22T17:01:57.276Z,9.47
2019-02-22T17:04:26.811Z,9.97
2019-02-22T17:06:56.529Z,10.30
2019-02-22T17:09:25.330Z,11.80
2019-02-22T17:11:54.405Z,11.97
2019-02-22T17:14:23.498Z,12.73
2019-02-22T17:16:52.530Z,12.13
2019-02-22T17:19:21.588Z,13.33
2019-02-22T17:21:50.704Z,12.03
2019-02-22T17:24:19.592Z,12.40
2019-02-22T17:26:48.665Z,12.47
2019-02-22T17:29:17.573Z,12.03
2019-02-22T17:31:46.654Z,13.03
2019-02-22T17:34:15.761Z,13.60
2019-02-22T17:36:44.639Z,14.57
2019-02-22T17:39:13.754Z,14.27
2019-02-22T17:41:43.143Z,14.00
2019-02-22T17:44:12.646Z,14.67
2019-02-22T17:46:41.996Z,15.37
2019-02-22T17:49:11.461Z,16.30
2019-02-22T17:51:40.565Z,14.80
2019-02-22T17:54:10.059Z,13.07
2019-02-22T17:56:39.152Z,15.07
2019-02-22T17:59:08.218Z,17.67
2019-02-22T18:01:37.009Z,29.93
2019-02-22T18:04:05.851Z,20.90
2019-02-22T18:06:35.169Z,15.53
2019-02-22T18:09:05.341Z,15.77
2019-02-22T18:11:34.662Z,15.03
2019-02-22T18:14:03.622Z,15.67
2019-02-22T18:16:33.457Z,15.00
2019-02-22T18:19:02.520Z,16.00
2019-02-22T18:21:31.657Z,15.00
2019-02-22T18:24:00.535Z,16.27
2019-02-22T18:26:29.625Z,16.07
2019-02-22T18:28:59.755Z,14.60
2019-02-22T18:31:29.444Z,15.50
2019-02-22T18:33:58.607Z,16.50
2019-02-22T18:36:27.808Z,15.00
2019-02-22T18:38:56.969Z,15.23
2019-02-22T18:41:26.310Z,14.63
2019-02-22T18:43:55.133Z,17.00
2019-02-22T18:46:24.553Z,16.33
2019-02-22T18:48:53.434Z,16.50
2019-02-22T18:51:22.228Z,15.93
2019-02-22T18:53:51.335Z,16.77
2019-02-22T18:56:20.867Z,16.17
2019-02-22T18:58:50.041Z,17.40
2019-02-22T19:01:19.100Z,14.20
2019-02-22T19:03:48.357Z,16.70
2019-02-22T19:06:17.425Z,17.43
2019-02-22T19:08:46.825Z,17.57
2019-02-22T19:11:15.715Z,13.63
2019-02-22T19:13:44.525Z,12.70
2019-02-22T19:16:13.426Z,17.27
2019-02-22T19:18:42.807Z,14.90
2019-02-22T19:21:12.108Z,14.80
2019-02-22T19:23:41.297Z,16.37
2019-02-22T19:26:10.612Z,12.33
2019-02-22T19:28:39.421Z,13.00
2019-02-22T19:31:08.537Z,12.83
2019-02-22T19:33:38.025Z,15.40
2019-02-22T19:36:07.073Z,14.20
2019-02-22T19:38:36.317Z,11.93
2019-02-22T19:41:05.411Z,12.70
2019-02-22T19:43:34.222Z,12.47
2019-02-22T19:46:03.342Z,12.73
2019-02-22T19:48:32.727Z,12.60
2019-02-22T19:51:01.977Z,13.00
2019-02-22T19:53:30.809Z,16.87
2019-02-22T19:55:59.692Z,16.00
2019-02-22T19:58:29.174Z,29.40
2019-02-22T20:00:58.217Z,14.60
2019-02-22T20:03:27.254Z,12.20
2019-02-22T20:05:56.349Z,12.37
2019-02-22T20:08:25.444Z,14.20
2019-02-22T20:10:54.245Z,11.77
2019-02-22T20:13:23.782Z,11.23
2019-02-22T20:15:52.573Z,11.47
2019-02-22T20:18:21.826Z,12.63
2019-02-22T20:20:50.641Z,14.30
2019-02-22T20:23:20.206Z,15.00
2019-02-22T20:25:49.483Z,16.87
2019-02-22T20:28:18.715Z,15.40
2019-02-22T20:30:48.030Z,14.57
2019-02-22T20:33:17.433Z,13.10
2019-02-22T20:35:46.726Z,12.83
2019-02-22T20:38:15.867Z,12.60
2019-02-22T20:40:44.680Z,15.80
2019-02-22T20:43:13.856Z,16.10
2019-02-22T20:45:43.166Z,14.03
2019-02-22T20:48:11.971Z,17.03
2019-02-22T20:50:40.805Z,15.03
2019-02-22T20:53:10.715Z,15.10
2019-02-22T20:55:39.784Z,14.80
2019-02-22T20:58:09.009Z,14.80
2019-02-22T21:00:38.265Z,18.37
2019-02-22T21:03:07.398Z,19.53
2019-02-22T21:05:36.593Z,19.23
2019-02-22T21:08:06.345Z,19.80
2019-02-22T21:10:37.932Z,20.03
2019-02-22T21:13:07.482Z,19.47
2019-02-22T21:15:36.578Z,17.90
2019-02-22T21:18:15.636Z,15.60
2019-02-22T21:20:36.003Z,17.27
2019-02-22T21:23:04.890Z,18.17
2019-02-22T21:25:34.386Z,16.20
2019-02-22T21:28:03.493Z,16.10
2019-02-22T21:30:32.604Z,17.67
2019-02-22T21:33:01.969Z,16.00
2019-02-22T21:35:31.109Z,16.87
2019-02-22T21:38:00.194Z,16.00
2019-02-22T21:40:29.007Z,15.57
2019-02-22T21:42:58.424Z,15.23
2019-02-22T21:45:27.692Z,15.57
2019-02-22T21:47:56.838Z,15.70
2019-02-22T21:50:26.107Z,17.60
2019-02-22T21:52:55.200Z,17.90
2019-02-22T21:55:24.034Z,18.43
2019-02-22T21:57:53.488Z,18.70
2019-02-22T22:00:22.775Z,15.33
2019-02-22T22:02:51.581Z,16.47
2019-02-22T22:05:20.972Z,14.27
2019-02-22T22:07:50.416Z,16.20
2019-02-22T22:10:19.528Z,8.93
2019-02-22T22:12:48.494Z,15.53
2019-02-22T22:15:18.179Z,18.23
2019-02-22T22:17:47.827Z,16.73
2019-02-22T22:20:16.789Z,17.80
2019-02-22T22:22:46.071Z,16.20
2019-02-22T22:25:14.961Z,20.17
2019-02-22T22:27:44.121Z,17.63
2019-02-22T22:30:13.098Z,11.03
2019-02-22T22:32:42.712Z,16.47
2019-02-22T22:35:11.770Z,17.00
2019-02-22T22:37:41.487Z,15.93
2019-02-22T22:40:10.751Z,13.60
2019-02-22T22:42:39.673Z,12.60
2019-02-22T22:45:09.633Z,10.93
2019-02-22T22:47:38.454Z,13.67
2019-02-22T22:50:09.344Z,10.30
2019-02-22T22:52:38.485Z,10.93
2019-02-22T22:55:07.191Z,9.43
2019-02-22T22:57:36.287Z,8.33
2019-02-22T23:00:14.012Z,8.53
2019-02-22T23:02:43.174Z,8.13
2019-02-22T23:05:12.353Z,7.77
2019-02-22T23:07:42.024Z,7.17
2019-02-22T23:10:11.594Z,7.47
2019-02-22T23:12:40.793Z,6.97
2019-02-22T23:15:09.985Z,6.73
2019-02-22T23:17:38.819Z,7.97
2019-02-22T23:20:08.040Z,8.00
2019-02-22T23:22:36.913Z,6.90
2019-02-22T23:25:06.117Z,6.57
2019-02-22T23:27:35.253Z,6.37
2019-02-22T23:30:04.878Z,6.77
2019-02-22T23:32:33.677Z,6.77
2019-02-22T23:35:02.790Z,7.40
2019-02-22T23:37:31.577Z,6.53
2019-02-22T23:40:01.109Z,7.57
2019-02-22T23:42:30.563Z,7.03
2019-02-22T23:45:00.324Z,8.30
2019-02-22T23:47:29.577Z,7.17
2019-02-22T23:49:58.669Z,7.63
2019-02-22T23:52:27.752Z,7.77
2019-02-22T23:54:56.863Z,8.03
2019-02-22T23:57:26.877Z,7.60
2019-02-22T23:59:56.365Z,8.50
